Time;durP1;ratioP1;P1;durP2;ratioP2;P2;SDS_P1;SDS_P2;PMS_P1;PMS_P2;Temp;Humidity;BMP_temperature;BMP_pressure;BME280_temperature;BME280_humidity;BME280_pressure;Samples;Min_cycle;Max_cycle;Signal;HPM_P1;HPM_P2
2022/11/11 00:01:15;;;;;;;11.50;5.60;;;12.00;99.90;;;;;;5057412;28;20439;-71
2022/11/11 00:03:42;;;;;;;12.45;6.45;;;12.00;99.90;;;;;;5057664;28;20059;-71
2022/11/11 00:06:11;;;;;;;18.73;7.60;;;12.00;99.90;;;;;;5057366;28;20041;-71
2022/11/11 00:08:37;;;;;;;13.90;7.18;;;12.00;99.90;;;;;;5057632;28;20043;-71
2022/11/11 00:11:05;;;;;;;15.45;7.07;;;12.00;99.90;;;;;;5040620;28;20052;-71
2022/11/11 00:13:31;;;;;;;17.55;7.10;;;12.00;99.90;;;;;;5056319;28;20044;-71
2022/11/11 00:16:04;;;;;;;14.35;7.05;;;12.00;99.90;;;;;;5040225;28;20132;-71
2022/11/11 00:26:42;;;;;;;13.13;7.13;;;12.00;99.90;;;;;;5043155;28;20056;-71
2022/11/11 00:29:07;;;;;;;15.13;6.32;;;12.00;99.90;;;;;;5056585;28;20048;-71
2022/11/11 00:31:34;;;;;;;16.30;6.68;;;12.00;99.90;;;;;;5057183;28;20045;-71
2022/11/11 00:34:00;;;;;;;10.85;5.82;;;12.00;99.90;;;;;;5039736;28;20048;-71
2022/11/11 00:36:26;;;;;;;17.10;7.30;;;12.00;99.90;;;;;;5056997;28;20477;-71
2022/11/11 00:38:54;;;;;;;18.58;7.50;;;12.00;99.90;;;;;;5056969;28;20052;-71
2022/11/11 00:41:21;;;;;;;14.32;6.43;;;12.00;99.90;;;;;;5056702;28;20063;-71
2022/11/11 00:43:47;;;;;;;13.18;6.90;;;12.00;99.90;;;;;;5056722;28;20045;-71
2022/11/11 00:51:44;;;;;;;16.88;7.80;;;11.90;99.90;;;;;;5056737;28;20052;-71
2022/11/11 00:54:10;;;;;;;14.55;7.20;;;11.90;99.90;;;;;;5056127;28;20070;-71
2022/11/11 00:56:37;;;;;;;15.30;7.90;;;11.80;99.90;;;;;;5023617;28;20044;-71
2022/11/11 00:59:04;;;;;;;18.83;8.23;;;11.80;99.90;;;;;;5056446;28;20056;-73
2022/11/11 01:01:31;;;;;;;17.33;7.30;;;11.90;99.90;;;;;;5056395;28;20134;-71
2022/11/11 01:03:58;;;;;;;14.02;7.13;;;11.90;99.90;;;;;;5056480;28;20056;-71
2022/11/11 01:06:24;;;;;;;12.18;5.47;;;11.90;99.90;;;;;;5039596;28;20062;-69
2022/11/11 01:08:49;;;;;;;17.05;8.30;;;11.90;99.90;;;;;;5023420;28;20056;-68
2022/11/11 01:11:18;;;;;;;13.90;7.53;;;11.90;99.90;;;;;;5056010;28;20099;-68
2022/11/11 01:13:44;;;;;;;17.02;7.70;;;11.90;99.90;;;;;;5056109;28;20094;-68
2022/11/11 01:16:13;;;;;;;16.88;8.32;;;11.90;99.90;;;;;;5055558;28;20056;-69
2022/11/11 01:18:40;;;;;;;16.15;8.15;;;11.90;99.90;;;;;;5055876;28;20087;-68
2022/11/11 01:21:10;;;;;;;19.00;7.57;;;11.90;99.90;;;;;;5039321;28;20051;-68
2022/11/11 01:23:37;;;;;;;14.65;7.82;;;12.00;99.90;;;;;;5056012;28;20048;-68
2022/11/11 01:26:15;;;;;;;11.90;6.47;;;12.00;99.90;;;;;;5056018;28;20134;-69
2022/11/11 01:28:41;;;;;;;12.48;7.63;;;12.00;99.90;;;;;;5056007;28;20048;-69
2022/11/11 01:31:10;;;;;;;19.30;8.95;;;12.00;99.90;;;;;;5055744;28;20125;-68
2022/11/11 01:33:36;;;;;;;23.60;8.98;;;12.00;99.90;;;;;;5039188;28;20493;-68
2022/11/11 01:36:11;;;;;;;15.10;8.93;;;12.10;99.90;;;;;;5038998;28;20044;-68
2022/11/11 01:38:38;;;;;;;16.92;9.18;;;12.10;99.90;;;;;;5055524;28;20497;-69
2022/11/11 01:41:51;;;;;;;16.23;8.18;;;12.10;99.90;;;;;;5039119;28;20123;-68
2022/11/11 01:43:52;;;;;;;18.17;8.48;;;12.00;99.90;;;;;;5038154;28;20135;-68
2022/11/11 01:46:34;;;;;;;17.25;8.73;;;12.00;99.90;;;;;;5022579;28;20366;-68
2022/11/11 01:49:24;;;;;;;16.08;8.02;;;12.00;99.90;;;;;;5055482;28;20382;-69
2022/11/11 01:51:53;;;;;;;15.73;7.15;;;12.00;99.90;;;;;;5055638;28;20044;-69
2022/11/11 01:54:30;;;;;;;15.15;8.30;;;12.00;99.90;;;;;;5055040;28;20036;-68
2022/11/11 01:57:33;;;;;;;16.63;9.43;;;12.00;99.90;;;;;;5055329;28;20047;-68
2022/11/11 02:00:09;;;;;;;17.75;8.90;;;12.00;99.90;;;;;;5055339;28;20048;-69
2022/11/11 02:02:42;;;;;;;19.20;8.93;;;12.10;99.90;;;;;;5055286;28;20048;-69
2022/11/11 02:08:03;;;;;;;19.13;9.00;;;12.00;99.90;;;;;;5055428;28;20060;-68
2022/11/11 02:10:31;;;;;;;17.73;9.23;;;12.00;99.90;;;;;;5055269;28;20060;-69
2022/11/11 02:15:41;;;;;;;19.90;9.40;;;12.00;99.90;;;;;;5054836;28;20114;-68
2022/11/11 02:18:07;;;;;;;21.88;9.32;;;12.00;99.90;;;;;;5055244;28;20041;-68
2022/11/11 02:20:43;;;;;;;12.30;8.48;;;12.00;99.90;;;;;;5054972;28;20626;-68
2022/11/11 02:23:27;;;;;;;18.13;9.02;;;12.00;99.90;;;;;;5055293;28;20544;-69
2022/11/11 02:25:55;;;;;;;17.90;7.90;;;12.00;99.90;;;;;;5055229;28;20059;-68
2022/11/11 02:28:24;;;;;;;19.10;9.85;;;12.00;99.90;;;;;;5038371;28;20084;-68
2022/11/11 02:30:50;;;;;;;19.73;10.38;;;12.00;99.90;;;;;;5055109;28;20049;-68
2022/11/11 02:33:17;;;;;;;18.08;8.07;;;12.00;99.90;;;;;;5038269;28;20045;-69
2022/11/11 02:35:47;;;;;;;26.02;9.73;;;12.00;99.90;;;;;;5023095;28;20125;-68
2022/11/11 02:38:13;;;;;;;22.23;9.32;;;12.00;99.90;;;;;;5059417;28;20450;-68
2022/11/11 02:43:25;;;;;;;18.50;10.55;;;11.90;99.90;;;;;;5058673;28;20493;-69
2022/11/11 02:45:52;;;;;;;20.77;10.05;;;11.90;99.90;;;;;;5059068;28;20056;-68
2022/11/11 02:48:17;;;;;;;20.67;9.05;;;11.90;99.90;;;;;;5042439;28;20052;-68
2022/11/11 02:50:43;;;;;;;20.83;10.68;;;11.90;99.90;;;;;;5042197;28;20044;-68
2022/11/11 02:53:09;;;;;;;19.42;10.27;;;11.90;99.90;;;;;;5058940;28;20044;-68
2022/11/11 02:55:34;;;;;;;19.40;10.95;;;11.80;99.90;;;;;;5058403;28;20072;-68
2022/11/11 02:58:00;;;;;;;21.48;12.88;;;11.80;99.90;;;;;;5025717;28;20056;-69
2022/11/11 03:00:26;;;;;;;20.08;13.05;;;11.70;99.90;;;;;;5058619;28;20041;-68
2022/11/11 03:02:51;;;;;;;22.10;12.57;;;11.70;99.90;;;;;;5042232;28;20044;-68
2022/11/11 03:05:17;;;;;;;20.90;11.43;;;11.70;99.90;;;;;;5042177;28;20084;-68
2022/11/11 03:07:43;;;;;;;24.17;13.77;;;11.60;99.90;;;;;;5058462;28;20041;-68
2022/11/11 03:10:09;;;;;;;25.33;12.95;;;11.60;99.90;;;;;;5042069;28;20434;-69
2022/11/11 03:12:34;;;;;;;24.73;13.73;;;11.60;99.90;;;;;;5041572;28;20045;-68
2022/11/11 03:15:00;;;;;;;24.70;11.82;;;11.50;99.90;;;;;;5040915;28;20584;-68
2022/11/11 03:17:38;;;;;;;25.67;14.73;;;11.50;99.90;;;;;;5041591;28;20101;-69
2022/11/11 03:23:09;;;;;;;20.73;11.80;;;11.50;99.90;;;;;;5058279;28;20056;-68
2022/11/11 03:25:39;;;;;;;28.77;16.75;;;11.50;99.90;;;;;;5041437;28;20130;-68
2022/11/11 03:28:10;;;;;;;28.25;15.32;;;11.50;99.90;;;;;;5041636;28;20048;-68
2022/11/11 03:30:37;;;;;;;26.65;13.65;;;11.50;99.90;;;;;;5058108;28;20361;-68
2022/11/11 03:33:03;;;;;;;26.80;14.35;;;11.50;99.90;;;;;;5058097;28;20546;-68
2022/11/11 03:35:29;;;;;;;31.00;15.38;;;11.50;99.90;;;;;;5057688;28;20435;-68
2022/11/11 03:40:39;;;;;;;29.40;14.75;;;11.50;99.90;;;;;;5057906;28;20048;-70
2022/11/11 03:43:05;;;;;;;29.38;16.45;;;11.50;99.90;;;;;;5041402;28;20472;-70
2022/11/11 03:45:31;;;;;;;34.85;16.52;;;11.50;99.90;;;;;;5041304;28;20079;-69
2022/11/11 03:47:57;;;;;;;28.92;17.30;;;11.50;99.90;;;;;;5056715;28;20087;-70
2022/11/11 03:50:23;;;;;;;32.63;17.13;;;11.40;99.90;;;;;;5057903;28;20041;-70
2022/11/11 03:52:49;;;;;;;31.67;16.15;;;11.50;99.90;;;;;;5057611;28;20048;-70
2022/11/11 03:55:15;;;;;;;30.10;17.70;;;11.50;99.90;;;;;;5041252;28;20051;-70
2022/11/11 03:57:44;;;;;;;30.35;15.57;;;11.40;99.90;;;;;;5024485;28;20040;-70
2022/11/11 04:00:14;;;;;;;31.70;15.43;;;11.40;99.90;;;;;;5057750;28;20484;-70
2022/11/11 04:11:11;;;;;;;26.27;14.25;;;11.40;99.90;;;;;;5057578;28;20052;-70
2022/11/11 04:16:27;;;;;;;32.83;17.77;;;11.50;99.90;;;;;;5006383;28;20134;-70
2022/11/11 04:21:43;;;;;;;33.45;18.30;;;11.50;99.90;;;;;;5042964;28;20045;-69
2022/11/11 04:27:02;;;;;;;34.00;18.23;;;11.50;99.90;;;;;;5057113;28;19928;-70
2022/11/11 04:29:29;;;;;;;28.42;17.17;;;11.50;99.90;;;;;;5057178;28;20457;-70
2022/11/11 04:34:59;;;;;;;29.45;15.40;;;11.50;99.90;;;;;;5056236;28;20052;-72
2022/11/11 04:37:27;;;;;;;34.65;17.23;;;11.50;99.90;;;;;;4674304;28;9999694;-70
2022/11/11 04:42:40;;;;;;;34.92;18.17;;;11.50;99.90;;;;;;5034283;28;20394;-69
2022/11/11 04:45:26;;;;;;;33.10;18.13;;;11.50;99.90;;;;;;5018019;28;20149;-70
2022/11/11 04:48:09;;;;;;;39.65;18.83;;;11.50;99.90;;;;;;5033912;28;20049;-69
2022/11/11 04:50:37;;;;;;;27.35;13.50;;;11.50;99.90;;;;;;5034469;28;20052;-69
2022/11/11 04:53:05;;;;;;;33.00;18.60;;;11.40;99.90;;;;;;5034360;28;20049;-70
2022/11/11 04:58:19;;;;;;;33.92;15.98;;;11.40;99.90;;;;;;5051448;28;20048;-70
2022/11/11 05:00:45;;;;;;;37.45;20.48;;;11.40;99.90;;;;;;5053626;28;20052;-69
2022/11/11 05:03:15;;;;;;;37.55;18.10;;;11.40;99.90;;;;;;5037678;28;20051;-69
2022/11/11 05:11:13;;;;;;;40.05;18.98;;;11.40;99.90;;;;;;5053480;28;20450;-70
2022/11/11 05:22:03;;;;;;;37.55;20.45;;;11.40;99.90;;;;;;5011824;28;20065;-70
2022/11/11 05:27:13;;;;;;;41.45;20.15;;;11.40;99.90;;;;;;5011852;28;20054;-70
2022/11/11 05:29:39;;;;;;;35.60;19.70;;;11.40;99.90;;;;;;5013517;28;20398;-70
2022/11/11 05:32:07;;;;;;;42.13;20.55;;;11.30;99.90;;;;;;4996180;28;20042;-70
2022/11/11 05:34:32;;;;;;;39.25;20.85;;;11.40;99.90;;;;;;5012697;28;20046;-70
2022/11/11 05:36:58;;;;;;;37.20;18.85;;;11.40;99.90;;;;;;5012603;28;20093;-69
2022/11/11 05:39:24;;;;;;;33.42;19.05;;;11.40;99.90;;;;;;5012939;28;20045;-70
2022/11/11 05:41:49;;;;;;;35.22;15.73;;;11.40;99.90;;;;;;5012637;28;20402;-70
2022/11/11 05:44:15;;;;;;;39.85;20.88;;;11.40;99.90;;;;;;4996432;28;20045;-70
2022/11/11 05:46:41;;;;;;;40.80;20.20;;;11.40;99.90;;;;;;5012835;28;20042;-70
2022/11/11 05:49:15;;;;;;;37.38;20.35;;;11.40;99.90;;;;;;5012310;28;20486;-69
2022/11/11 05:51:45;;;;;;;38.95;20.25;;;11.40;99.90;;;;;;5012736;28;20046;-69
2022/11/11 05:54:11;;;;;;;33.53;17.70;;;11.40;99.90;;;;;;5012484;28;20072;-70
2022/11/11 05:56:37;;;;;;;33.55;17.15;;;11.50;99.90;;;;;;4996319;28;20050;-70
2022/11/11 05:59:04;;;;;;;38.17;19.27;;;11.40;99.90;;;;;;5012410;28;20133;-69
2022/11/11 06:01:30;;;;;;;31.60;16.02;;;11.50;99.90;;;;;;5012623;28;20045;-70
2022/11/11 06:03:56;;;;;;;34.72;18.90;;;11.50;99.90;;;;;;4995934;28;20062;-70
2022/11/11 06:06:21;;;;;;;36.53;18.17;;;11.50;99.90;;;;;;5012424;28;20541;-69
2022/11/11 06:08:47;;;;;;;30.48;15.75;;;11.50;99.90;;;;;;5012180;28;20509;-69
2022/11/11 06:11:13;;;;;;;39.03;18.35;;;11.50;99.90;;;;;;5011549;28;20045;-69
2022/11/11 06:13:39;;;;;;;37.30;19.20;;;11.60;99.90;;;;;;4979803;28;20096;-70
2022/11/11 06:16:05;;;;;;;32.58;18.92;;;11.60;99.90;;;;;;5017607;28;20577;-70
2022/11/11 06:18:31;;;;;;;35.30;18.15;;;11.60;99.90;;;;;;4995833;28;20097;-70
2022/11/11 06:20:58;;;;;;;31.13;16.58;;;11.60;99.90;;;;;;4995779;28;20084;-69
2022/11/11 06:23:25;;;;;;;35.70;18.52;;;11.70;99.90;;;;;;5012240;28;20449;-70
2022/11/11 06:28:36;;;;;;;38.38;18.75;;;11.70;99.90;;;;;;4998354;28;20085;-70
2022/11/11 06:31:02;;;;;;;32.67;15.68;;;11.60;99.90;;;;;;5011894;28;20081;-69
2022/11/11 06:33:27;;;;;;;35.70;17.30;;;11.60;99.90;;;;;;5011823;28;20046;-70
2022/11/11 06:35:53;;;;;;;39.13;19.67;;;11.60;99.90;;;;;;4995444;28;20045;-69
2022/11/11 06:38:19;;;;;;;34.85;19.58;;;11.60;99.90;;;;;;5012172;28;20045;-69
2022/11/11 06:40:46;;;;;;;37.85;19.65;;;11.60;99.90;;;;;;4995753;28;20471;-69
2022/11/11 06:43:11;;;;;;;34.72;16.42;;;11.60;99.90;;;;;;4995527;28;20041;-69
2022/11/11 06:45:37;;;;;;;34.35;18.02;;;11.60;99.90;;;;;;5012015;28;20104;-70
2022/11/11 06:48:04;;;;;;;39.33;21.27;;;11.60;99.90;;;;;;4995450;28;20107;-69
2022/11/11 06:50:31;;;;;;;36.40;18.00;;;11.60;99.90;;;;;;5011945;28;20103;-70
2022/11/11 06:53:06;;;;;;;38.95;20.05;;;11.60;99.90;;;;;;5011429;28;20395;-69
2022/11/11 06:55:33;;;;;;;36.53;17.98;;;11.60;99.90;;;;;;5011933;28;20137;-69
2022/11/11 06:58:15;;;;;;;38.53;17.63;;;11.60;99.90;;;;;;5011711;28;20045;-69
2022/11/11 07:00:41;;;;;;;30.48;17.02;;;11.60;99.90;;;;;;5011945;28;20064;-69
2022/11/11 07:03:09;;;;;;;37.88;19.77;;;11.60;99.90;;;;;;5011633;28;20057;-69
2022/11/11 07:05:35;;;;;;;31.08;16.70;;;11.60;99.90;;;;;;4995161;28;20053;-69
2022/11/11 07:08:07;;;;;;;42.10;20.17;;;11.60;99.90;;;;;;5011186;28;20046;-69
2022/11/11 07:10:36;;;;;;;32.10;17.50;;;11.60;99.90;;;;;;5011468;28;20042;-70
2022/11/11 07:13:03;;;;;;;35.58;19.08;;;11.60;99.90;;;;;;5011449;28;20088;-70
2022/11/11 07:15:29;;;;;;;37.10;17.63;;;11.60;99.90;;;;;;4995330;28;20042;-70
2022/11/11 07:17:55;;;;;;;39.95;17.33;;;11.60;99.90;;;;;;4994676;28;20093;-69
2022/11/11 07:20:20;;;;;;;35.28;14.75;;;11.60;99.90;;;;;;4995190;28;20093;-70
2022/11/11 07:22:47;;;;;;;29.65;15.13;;;11.60;99.90;;;;;;4997927;28;20132;-70
2022/11/11 07:25:13;;;;;;;33.22;15.40;;;11.60;99.90;;;;;;4982378;28;20053;-70
2022/11/11 07:27:39;;;;;;;28.60;14.98;;;11.60;99.90;;;;;;5015300;28;20046;-69
2022/11/11 07:30:06;;;;;;;32.88;16.58;;;11.60;99.90;;;;;;4998729;28;20478;-70
2022/11/11 07:32:32;;;;;;;32.35;15.35;;;11.60;99.90;;;;;;5015205;28;20144;-70
2022/11/11 07:34:58;;;;;;;33.92;16.17;;;11.60;99.90;;;;;;5014856;28;20053;-69
2022/11/11 07:37:24;;;;;;;30.83;16.85;;;11.60;99.90;;;;;;4998556;28;20042;-69
2022/11/11 07:39:50;;;;;;;33.65;16.45;;;11.60;99.90;;;;;;5015058;28;20100;-69
2022/11/11 07:42:16;;;;;;;36.17;17.30;;;11.70;99.90;;;;;;5014820;28;20048;-70
2022/11/11 07:44:41;;;;;;;32.50;14.98;;;11.60;99.90;;;;;;4998567;28;20101;-70
2022/11/11 07:47:07;;;;;;;32.55;16.73;;;11.70;99.90;;;;;;5014619;28;20077;-70
2022/11/11 07:49:33;;;;;;;24.95;12.02;;;11.70;99.90;;;;;;4998583;28;20065;-70
2022/11/11 07:51:58;;;;;;;31.08;16.42;;;11.70;99.90;;;;;;5014743;28;20072;-70
2022/11/11 07:54:24;;;;;;;30.75;15.55;;;11.80;99.90;;;;;;5014282;28;20080;-70
2022/11/11 07:56:50;;;;;;;27.17;13.40;;;11.70;99.90;;;;;;5014695;28;20487;-70
2022/11/11 07:59:16;;;;;;;28.52;16.15;;;11.70;99.90;;;;;;4997936;28;20049;-70
2022/11/11 08:01:41;;;;;;;37.83;16.95;;;11.70;99.90;;;;;;5014428;28;20046;-70
2022/11/11 08:04:07;;;;;;;31.73;15.73;;;11.80;99.90;;;;;;4965577;28;20053;-70
2022/11/11 08:06:33;;;;;;;30.60;15.38;;;11.70;99.90;;;;;;4998092;28;20489;-70
2022/11/11 08:08:59;;;;;;;30.02;15.98;;;11.70;99.90;;;;;;5014262;28;20562;-70
2022/11/11 08:14:08;;;;;;;29.48;14.88;;;11.70;99.90;;;;;;5000072;28;20132;-70
2022/11/11 08:16:34;;;;;;;32.50;16.73;;;11.70;99.90;;;;;;4997718;28;20134;-70
2022/11/11 08:19:00;;;;;;;31.60;15.20;;;11.80;99.90;;;;;;5014294;28;20058;-70
2022/11/11 08:21:26;;;;;;;35.67;17.55;;;11.70;99.90;;;;;;5014113;28;20045;-70
2022/11/11 08:23:53;;;;;;;29.67;15.48;;;11.80;99.90;;;;;;4997858;28;20046;-70
2022/11/11 08:26:20;;;;;;;25.02;13.25;;;11.80;99.90;;;;;;4981559;28;20050;-70
2022/11/11 08:28:46;;;;;;;34.92;16.67;;;11.80;99.90;;;;;;4997797;28;20104;-70
2022/11/11 08:31:12;;;;;;;33.58;17.48;;;11.80;99.90;;;;;;4981301;28;20050;-70
2022/11/11 08:33:38;;;;;;;33.13;15.13;;;11.80;99.90;;;;;;5013080;28;20041;-70
2022/11/11 08:36:04;;;;;;;26.85;13.30;;;11.80;99.90;;;;;;4997613;28;20053;-70
2022/11/11 08:38:30;;;;;;;34.22;16.70;;;11.80;99.90;;;;;;5013689;28;20274;-70
2022/11/11 08:41:03;;;;;;;31.30;16.35;;;11.80;99.90;;;;;;4997453;28;20061;-70
2022/11/11 08:43:31;;;;;;;28.88;15.02;;;11.80;99.90;;;;;;5013604;28;20046;-70
2022/11/11 08:46:02;;;;;;;29.25;16.17;;;11.80;99.90;;;;;;5013687;28;20558;-70
2022/11/11 08:48:30;;;;;;;33.55;17.65;;;11.80;99.90;;;;;;5013585;28;20050;-70
2022/11/11 08:50:56;;;;;;;32.22;16.80;;;11.80;99.90;;;;;;5013690;28;20088;-70
2022/11/11 08:53:22;;;;;;;34.13;16.52;;;11.80;99.90;;;;;;4996747;28;20398;-70
2022/11/11 08:55:47;;;;;;;33.13;15.50;;;11.90;99.90;;;;;;4997301;28;20068;-70
2022/11/11 08:58:13;;;;;;;24.30;13.50;;;11.90;99.90;;;;;;5013293;28;20129;-70
2022/11/11 09:00:39;;;;;;;31.88;15.35;;;11.90;99.90;;;;;;5013407;28;20053;-70
2022/11/11 09:03:10;;;;;;;28.20;14.90;;;11.90;99.90;;;;;;4980886;28;20056;-70
2022/11/11 09:05:40;;;;;;;24.85;11.35;;;11.90;99.90;;;;;;5013158;28;20479;-70
2022/11/11 09:08:07;;;;;;;28.42;15.60;;;11.90;99.90;;;;;;4996923;28;20505;-70
2022/11/11 09:10:36;;;;;;;29.98;15.18;;;11.90;99.90;;;;;;4996697;28;20053;-70
2022/11/11 09:13:03;;;;;;;31.65;14.93;;;11.80;99.90;;;;;;4996787;28;20045;-70
2022/11/11 09:15:29;;;;;;;30.42;14.50;;;11.90;99.90;;;;;;5012707;28;20068;-70
2022/11/11 09:17:55;;;;;;;29.80;15.07;;;11.90;99.90;;;;;;5031266;28;20140;-70
2022/11/11 09:20:21;;;;;;;27.92;14.77;;;12.00;99.90;;;;;;5036002;28;20045;-70
2022/11/11 09:22:48;;;;;;;30.50;15.95;;;11.90;99.90;;;;;;5035779;28;20124;-70
2022/11/11 09:25:14;;;;;;;31.38;15.63;;;12.00;99.90;;;;;;5019366;28;20382;-70
2022/11/11 09:27:41;;;;;;;31.65;13.27;;;11.90;99.90;;;;;;5035819;28;20053;-70
2022/11/11 09:30:09;;;;;;;29.33;13.40;;;11.90;99.90;;;;;;5035946;28;20128;-70
2022/11/11 09:32:35;;;;;;;28.27;16.58;;;12.00;99.90;;;;;;5035697;28;20398;-70
2022/11/11 09:35:02;;;;;;;28.80;14.52;;;11.90;99.90;;;;;;5035564;28;20052;-70
2022/11/11 09:37:28;;;;;;;28.23;13.57;;;12.00;99.90;;;;;;5035693;28;20084;-70
2022/11/11 09:39:56;;;;;;;23.33;12.73;;;12.00;99.90;;;;;;5019413;28;20496;-69
2022/11/11 09:42:43;;;;;;;30.90;15.32;;;12.00;99.90;;;;;;5035193;28;20103;-69
2022/11/11 09:45:27;;;;;;;27.10;13.00;;;12.00;99.90;;;;;;5035752;28;20194;-69
2022/11/11 09:48:26;;;;;;;37.70;18.50;;;12.10;99.90;;;;;;5035697;28;20045;-69
2022/11/11 09:50:57;;;;;;;35.08;17.42;;;12.10;99.90;;;;;;5035564;28;20049;-70
2022/11/11 09:53:49;;;;;;;32.08;17.55;;;12.10;99.90;;;;;;5018864;28;20044;-69
2022/11/11 09:56:18;;;;;;;34.10;14.55;;;12.10;99.90;;;;;;5019175;28;20049;-70
2022/11/11 09:58:57;;;;;;;26.70;14.07;;;12.20;99.90;;;;;;5018790;28;20401;-70
2022/11/11 10:01:32;;;;;;;31.13;16.60;;;12.20;99.90;;;;;;5035236;28;20051;-69
2022/11/11 10:04:24;;;;;;;28.40;15.82;;;12.20;99.90;;;;;;5035494;28;20088;-69
2022/11/11 10:06:56;;;;;;;38.97;21.42;;;12.10;99.90;;;;;;5035397;28;20045;-70
2022/11/11 10:09:40;;;;;;;39.17;19.83;;;12.20;99.90;;;;;;5035056;28;20056;-69
2022/11/11 10:12:14;;;;;;;40.17;19.73;;;12.20;99.90;;;;;;5035408;28;20438;-70
2022/11/11 10:14:45;;;;;;;34.10;18.95;;;12.20;99.90;;;;;;5034826;28;20645;-69
2022/11/11 10:17:48;;;;;;;27.05;14.45;;;12.20;99.90;;;;;;5035241;28;20485;-70
2022/11/11 10:20:23;;;;;;;27.70;14.27;;;12.20;99.90;;;;;;4986649;28;20494;-70
2022/11/11 10:22:55;;;;;;;26.38;14.80;;;12.30;99.90;;;;;;5031943;28;20054;-70
2022/11/11 10:25:24;;;;;;;28.02;13.07;;;12.30;99.90;;;;;;5031588;28;20064;-70
2022/11/11 10:27:54;;;;;;;27.38;14.82;;;12.30;99.90;;;;;;5031853;28;20054;-70
2022/11/11 10:30:20;;;;;;;30.88;16.63;;;12.30;99.90;;;;;;5031826;28;20041;-70
2022/11/11 10:32:55;;;;;;;29.58;17.10;;;12.30;99.90;;;;;;5031548;28;20111;-70
2022/11/11 10:35:24;;;;;;;29.35;15.23;;;12.30;99.90;;;;;;5031441;28;20044;-70
2022/11/11 10:38:28;;;;;;;24.10;13.52;;;12.30;99.90;;;;;;5031496;28;20057;-69
2022/11/11 10:40:57;;;;;;;22.73;11.88;;;12.30;99.90;;;;;;5031618;28;20053;-69
2022/11/11 10:43:25;;;;;;;34.88;20.40;;;12.40;99.90;;;;;;5015134;28;20068;-69
2022/11/11 10:46:03;;;;;;;43.22;24.90;;;12.40;99.90;;;;;;5015003;28;20120;-70
2022/11/11 10:48:42;;;;;;;35.55;19.33;;;12.40;99.90;;;;;;5031461;28;20045;-69
2022/11/11 10:51:08;;;;;;;35.40;17.23;;;12.40;99.90;;;;;;5031408;28;20072;-69
2022/11/11 10:53:34;;;;;;;34.30;18.40;;;12.50;99.90;;;;;;4998150;28;20132;-69
2022/11/11 10:56:18;;;;;;;35.08;18.70;;;12.50;99.90;;;;;;5031566;28;20196;-70
2022/11/11 10:58:53;;;;;;;26.77;15.00;;;12.50;99.90;;;;;;5034763;28;20053;-70
2022/11/11 11:01:36;;;;;;;26.60;14.18;;;12.50;99.90;;;;;;5018983;28;20050;-69
2022/11/11 11:04:30;;;;;;;18.98;10.55;;;12.60;99.90;;;;;;5035444;28;20049;-70
2022/11/11 11:06:59;;;;;;;17.75;9.77;;;12.60;99.90;;;;;;5018981;28;20045;-69
2022/11/11 11:09:57;;;;;;;17.88;8.90;;;12.60;99.90;;;;;;5018809;28;20067;-70
2022/11/11 11:12:30;;;;;;;19.33;10.98;;;12.60;99.90;;;;;;5012538;28;20057;-69
2022/11/11 11:15:01;;;;;;;30.00;15.95;;;12.60;99.90;;;;;;5035143;28;20405;-70
2022/11/11 11:17:50;;;;;;;31.20;18.05;;;12.60;99.90;;;;;;5035369;28;20397;-69
2022/11/11 11:20:19;;;;;;;21.33;12.20;;;12.60;99.90;;;;;;5035283;28;20054;-69
2022/11/11 11:22:54;;;;;;;19.75;9.85;;;12.70;99.90;;;;;;5035070;28;20409;-70
2022/11/11 11:25:21;;;;;;;19.02;9.80;;;12.60;99.90;;;;;;5035186;28;20053;-69
2022/11/11 11:27:50;;;;;;;18.52;9.98;;;12.70;99.90;;;;;;5002233;28;20091;-70
2022/11/11 11:30:22;;;;;;;20.08;11.77;;;12.70;99.90;;;;;;5034841;28;20049;-70
2022/11/11 11:33:02;;;;;;;19.08;11.80;;;12.70;99.90;;;;;;5034836;28;20060;-70
2022/11/11 11:35:40;;;;;;;22.60;10.27;;;12.70;99.90;;;;;;5034722;28;20107;-70
2022/11/11 11:38:08;;;;;;;21.40;12.25;;;12.80;99.90;;;;;;5035039;28;20060;-70
2022/11/11 11:41:03;;;;;;;23.17;12.95;;;12.80;99.90;;;;;;5018313;28;20486;-72
2022/11/11 11:43:38;;;;;;;23.58;11.82;;;12.90;99.90;;;;;;5008517;28;20072;-70
2022/11/11 11:46:26;;;;;;;22.92;13.88;;;12.90;99.90;;;;;;4999603;28;20712;-70
2022/11/11 11:49:09;;;;;;;22.75;13.05;;;12.90;99.90;;;;;;5015833;28;20053;-71
2022/11/11 11:51:55;;;;;;;23.45;10.57;;;12.90;99.90;;;;;;4698442;28;10000529;-70
2022/11/11 11:54:58;;;;;;;20.90;11.05;;;12.90;99.90;;;;;;5051701;28;20068;-70
2022/11/11 11:57:46;;;;;;;20.30;11.38;;;12.90;99.90;;;;;;5051208;28;20052;-70
2022/11/11 12:00:46;;;;;;;21.58;10.52;;;12.90;99.90;;;;;;5035147;28;20045;-70
2022/11/11 12:03:40;;;;;;;15.98;9.95;;;12.90;99.90;;;;;;5051392;28;20052;-70
2022/11/11 12:06:17;;;;;;;24.25;12.60;;;12.90;99.90;;;;;;5052169;28;20037;-70
2022/11/11 12:08:52;;;;;;;23.75;12.55;;;12.90;99.90;;;;;;5050167;28;20056;-71
2022/11/11 12:11:46;;;;;;;18.52;10.55;;;12.90;99.90;;;;;;5051965;28;20466;-70
2022/11/11 12:14:44;;;;;;;23.88;13.63;;;12.80;99.90;;;;;;5024388;28;20060;-71
2022/11/11 12:17:38;;;;;;;19.77;9.95;;;12.80;99.90;;;;;;5017672;28;20065;-70
2022/11/11 12:20:13;;;;;;;18.85;11.02;;;12.80;99.90;;;;;;5033649;28;20413;-71
2022/11/11 12:23:00;;;;;;;18.52;11.52;;;12.90;99.90;;;;;;5051756;28;20102;-70
2022/11/11 12:25:43;;;;;;;21.08;11.02;;;13.00;99.90;;;;;;5051807;28;20053;-70
2022/11/11 12:28:31;;;;;;;19.45;10.52;;;13.00;99.90;;;;;;5051742;28;20084;-70
2022/11/11 12:31:11;;;;;;;18.92;12.32;;;13.00;99.90;;;;;;5034520;28;20504;-70
2022/11/11 12:34:05;;;;;;;23.35;12.13;;;13.00;99.90;;;;;;5034355;28;20140;-70
2022/11/11 12:36:37;;;;;;;22.42;13.40;;;12.90;99.90;;;;;;5051382;28;20069;-71
2022/11/11 12:39:31;;;;;;;26.73;14.20;;;12.90;99.90;;;;;;5050970;28;20048;-70
2022/11/11 12:42:18;;;;;;;19.60;10.82;;;12.90;99.90;;;;;;5051095;28;20051;-70
2022/11/11 12:45:04;;;;;;;16.52;9.48;;;12.90;99.90;;;;;;5050783;28;20064;-71
2022/11/11 12:47:45;;;;;;;17.25;9.95;;;12.90;99.90;;;;;;5051214;28;20060;-70
2022/11/11 12:50:18;;;;;;;16.17;10.43;;;12.90;99.90;;;;;;5029501;28;20073;-71
2022/11/11 12:53:03;;;;;;;23.85;11.95;;;12.80;99.90;;;;;;5031172;28;20095;-72
2022/11/11 12:55:40;;;;;;;25.17;15.35;;;12.80;99.90;;;;;;5030527;28;20049;-70
2022/11/11 12:58:22;;;;;;;23.60;14.02;;;12.70;99.90;;;;;;5031014;28;20139;-71
2022/11/11 13:01:09;;;;;;;20.10;12.35;;;12.60;99.90;;;;;;5014516;28;20053;-70
2022/11/11 13:03:45;;;;;;;30.02;14.65;;;12.60;99.90;;;;;;5014335;28;20490;-70
2022/11/11 13:06:20;;;;;;;28.48;16.50;;;12.60;99.90;;;;;;5014612;28;20182;-70
2022/11/11 13:09:03;;;;;;;24.92;15.57;;;12.60;99.90;;;;;;5030592;28;20049;-71
2022/11/11 13:11:51;;;;;;;29.80;15.82;;;12.60;99.90;;;;;;5030859;28;20092;-70
2022/11/11 13:15:02;;;;;;;19.58;11.80;;;12.60;99.90;;;;;;5014460;28;20094;-70
2022/11/11 13:17:31;;;;;;;16.50;8.88;;;12.70;99.90;;;;;;5030886;28;20383;-70
2022/11/11 13:20:05;;;;;;;17.80;10.02;;;12.80;99.90;;;;;;5017702;28;20411;-70
2022/11/11 13:22:32;;;;;;;17.40;9.98;;;12.70;99.90;;;;;;5011128;28;20057;-70
2022/11/11 13:25:03;;;;;;;16.60;9.85;;;12.70;99.90;;;;;;5010674;28;20100;-70
2022/11/11 13:27:29;;;;;;;;;;;12.70;99.90;;;;;;4994992;28;20116;-70
2022/11/11 13:30:00;;;;;;;20.67;10.65;;;12.70;99.90;;;;;;4994372;28;19921;-71
2022/11/11 13:32:36;;;;;;;;;;;12.70;99.90;;;;;;5010430;28;20115;-71
2022/11/11 13:35:09;;;;;;;18.67;11.07;;;12.70;99.90;;;;;;4993989;28;19925;-70
2022/11/11 13:37:36;;;;;;;18.92;11.40;;;12.60;99.90;;;;;;4979130;28;20092;-71
2022/11/11 13:40:11;;;;;;;18.17;10.10;;;12.60;99.90;;;;;;5010284;28;20050;-70
2022/11/11 13:42:40;;;;;;;19.05;9.57;;;12.60;99.90;;;;;;4994265;28;20065;-70
2022/11/11 13:45:16;;;;;;;18.65;10.45;;;12.60;99.90;;;;;;4993631;28;20085;-71
2022/11/11 13:47:45;;;;;;;18.52;10.68;;;12.60;99.90;;;;;;5010325;28;20463;-70
2022/11/11 13:50:22;;;;;;;19.40;10.75;;;12.70;99.90;;;;;;4998224;28;20076;-70
2022/11/11 13:53:04;;;;;;;14.68;9.35;;;12.60;99.90;;;;;;5030242;28;20042;-71
2022/11/11 13:55:40;;;;;;;18.33;10.30;;;12.70;99.90;;;;;;5029360;28;20045;-71
2022/11/11 13:58:16;;;;;;;25.38;12.15;;;12.70;99.90;;;;;;5029924;28;20045;-70
2022/11/11 14:00:42;;;;;;;21.33;12.38;;;12.70;99.90;;;;;;5013666;28;20057;-70
2022/11/11 14:03:17;;;;;;;20.98;12.68;;;12.60;99.90;;;;;;5013327;28;20105;-70
2022/11/11 14:05:44;;;;;;;18.90;11.23;;;12.60;99.90;;;;;;5030002;28;20048;-70
2022/11/11 14:08:30;;;;;;;19.42;11.27;;;12.60;99.90;;;;;;5029184;28;20048;-70